Terminal Aerodrome Forecast
Issued by NWS Charleston, SC

Home | Current Version | Previous Version | Text Only | Print | Product List | Glossary On
Versions: 1 2 3 4 5 6 7 8 9 10 11 12 13 14 15 16
000
FTUS42 KCHS 252325
TAFSAV
TAF
KSAV 252325Z 2600/2624 28005KT P6SM SCT070
     FM260400 00000KT P6SM SKC
     FM261400 20009KT P6SM SCT250
     FM262000 17010KT P6SM SCT060=

USA.gov is the U.S. government's official web portal to all federal, state and local government web resources and services.